Esmeralda, Brazil
Current Conditions -  °F | °C
As of 10:00 PM on Thursday 30 Oct 2014 (Local Time) from SBPF Reporting Station
Overcast Overcast  
Wind Chill: 59°   Ceiling: 10000
Heat Index: 59°   Visibility: 6mi
Dew Point: 57°   Wind: 0mph
Humidity: 94%   Direction: NA
Pressure: 29.88"   Gusts: NA
Location:  28.05°S, 51.19°W
Report Text: SBPF 310000Z 00000KT 9000 FEW010 OVC100 15/14 Q1012
Loading
Personal Weather Stations






























Interactive Weather Map
Tropical Storm Tracking
New forecast layout! Learn more

10-Day Weather Forecast

Advertisements
Track Severe Weather on mobile